sensor_id;sensor_type;location;lat;lon;timestamp;temperature;humidity
70202;DHT22;57724;52.164;5.408;2022-08-21T06:56:39;20.10;98.90
70202;DHT22;57724;52.164;5.408;2022-08-21T06:59:06;20.30;98.00
70202;DHT22;57724;52.164;5.408;2022-08-21T07:04:01;18.70;96.20
70202;DHT22;57724;52.164;5.408;2022-08-21T07:11:27;21.80;95.20
70202;DHT22;57724;52.164;5.408;2022-08-21T07:23:52;20.90;93.20
70202;DHT22;57724;52.164;5.408;2022-08-21T07:26:20;21.30;82.50
70202;DHT22;57724;52.164;5.408;2022-08-21T07:28:48;21.40;92.60
70202;DHT22;57724;52.164;5.408;2022-08-21T07:31:17;20.40;92.00
70202;DHT22;57724;52.164;5.408;2022-08-21T07:33:45;21.20;82.40
70202;DHT22;57724;52.164;5.408;2022-08-21T07:36:12;20.50;91.60
70202;DHT22;57724;52.164;5.408;2022-08-21T07:41:18;21.20;91.60
70202;DHT22;57724;52.164;5.408;2022-08-21T07:43:46;21.90;85.00
70202;DHT22;57724;52.164;5.408;2022-08-21T07:48:40;24.60;90.70
70202;DHT22;57724;52.164;5.408;2022-08-21T07:51:09;24.20;90.30
70202;DHT22;57724;52.164;5.408;2022-08-21T07:53:37;22.60;89.00
70202;DHT22;57724;52.164;5.408;2022-08-21T07:56:05;23.10;81.70
70202;DHT22;57724;52.164;5.408;2022-08-21T08:00:59;23.90;89.00
70202;DHT22;57724;52.164;5.408;2022-08-21T08:03:26;22.30;80.70
70202;DHT22;57724;52.164;5.408;2022-08-21T08:05:56;23.60;74.40
70202;DHT22;57724;52.164;5.408;2022-08-21T08:08:23;25.10;88.10
70202;DHT22;57724;52.164;5.408;2022-08-21T08:13:17;23.70;81.90
70202;DHT22;57724;52.164;5.408;2022-08-21T08:15:44;23.20;85.50
70202;DHT22;57724;52.164;5.408;2022-08-21T08:20:39;25.90;85.90
70202;DHT22;57724;52.164;5.408;2022-08-21T08:23:10;23.30;72.60
70202;DHT22;57724;52.164;5.408;2022-08-21T08:28:05;25.00;83.20
70202;DHT22;57724;52.164;5.408;2022-08-21T08:30:44;26.30;83.00
70202;DHT22;57724;52.164;5.408;2022-08-21T08:35:39;24.60;81.30
70202;DHT22;57724;52.164;5.408;2022-08-21T08:38:07;25.30;80.60
70202;DHT22;57724;52.164;5.408;2022-08-21T08:40:47;25.20;66.50
70202;DHT22;57724;52.164;5.408;2022-08-21T08:43:18;27.10;79.30
70202;DHT22;57724;52.164;5.408;2022-08-21T08:45:48;26.80;79.10
70202;DHT22;57724;52.164;5.408;2022-08-21T08:48:40;24.90;76.60
70202;DHT22;57724;52.164;5.408;2022-08-21T08:51:14;24.90;77.10
70202;DHT22;57724;52.164;5.408;2022-08-21T08:53:52;26.10;73.70
70202;DHT22;57724;52.164;5.408;2022-08-21T08:56:26;26.30;66.30
70202;DHT22;57724;52.164;5.408;2022-08-21T08:58:58;26.80;77.10
70202;DHT22;57724;52.164;5.408;2022-08-21T09:01:28;26.50;77.00
70202;DHT22;57724;52.164;5.408;2022-08-21T09:03:56;26.90;77.00
70202;DHT22;57724;52.164;5.408;2022-08-21T09:12:02;27.50;75.00
70202;DHT22;57724;52.164;5.408;2022-08-21T09:14:51;26.70;75.10
70202;DHT22;57724;52.164;5.408;2022-08-21T09:17:49;25.20;74.60
70202;DHT22;57724;52.164;5.408;2022-08-21T09:20:52;27.40;77.40
70202;DHT22;57724;52.164;5.408;2022-08-21T09:24:18;26.30;65.30
70202;DHT22;57724;52.164;5.408;2022-08-21T09:27:30;25.90;75.30
70202;DHT22;57724;52.164;5.408;2022-08-21T09:29:35;27.00;61.30
70202;DHT22;57724;52.164;5.408;2022-08-21T09:32:17;27.10;61.00
70202;DHT22;57724;52.164;5.408;2022-08-21T09:35:17;26.50;73.00
70202;DHT22;57724;52.164;5.408;2022-08-21T09:37:53;27.40;58.10
70202;DHT22;57724;52.164;5.408;2022-08-21T09:40:28;27.40;57.70
70202;DHT22;57724;52.164;5.408;2022-08-21T09:43:04;28.70;70.10
70202;DHT22;57724;52.164;5.408;2022-08-21T09:45:32;28.80;73.00
70202;DHT22;57724;52.164;5.408;2022-08-21T09:48:17;27.30;71.00
70202;DHT22;57724;52.164;5.408;2022-08-21T09:50:45;28.00;56.70
70202;DHT22;57724;52.164;5.408;2022-08-21T09:53:21;29.20;70.60
70202;DHT22;57724;52.164;5.408;2022-08-21T09:55:59;28.10;70.80
70202;DHT22;57724;52.164;5.408;2022-08-21T09:58:51;27.20;70.60
70202;DHT22;57724;52.164;5.408;2022-08-21T10:01:22;27.80;57.80
70202;DHT22;57724;52.164;5.408;2022-08-21T10:04:09;28.10;71.20
70202;DHT22;57724;52.164;5.408;2022-08-21T10:06:36;28.80;71.60
70202;DHT22;57724;52.164;5.408;2022-08-21T10:09:06;28.20;71.00
70202;DHT22;57724;52.164;5.408;2022-08-21T10:25:14;29.50;65.60
70202;DHT22;57724;52.164;5.408;2022-08-21T10:33:02;27.50;65.10
70202;DHT22;57724;52.164;5.408;2022-08-21T10:36:10;27.70;67.20
70202;DHT22;57724;52.164;5.408;2022-08-21T10:42:03;27.80;68.10
70202;DHT22;57724;52.164;5.408;2022-08-21T10:45:01;28.40;67.90
70202;DHT22;57724;52.164;5.408;2022-08-21T10:47:46;28.70;66.80
70202;DHT22;57724;52.164;5.408;2022-08-21T10:55:52;28.60;53.40
70202;DHT22;57724;52.164;5.408;2022-08-21T10:58:38;28.20;67.40
70202;DHT22;57724;52.164;5.408;2022-08-21T11:01:15;29.10;52.70
70202;DHT22;57724;52.164;5.408;2022-08-21T11:03:46;27.70;65.00
70202;DHT22;57724;52.164;5.408;2022-08-21T11:06:30;28.10;66.00
70202;DHT22;57724;52.164;5.408;2022-08-21T11:09:15;27.80;66.00
70202;DHT22;57724;52.164;5.408;2022-08-21T11:11:56;28.70;50.80
70202;DHT22;57724;52.164;5.408;2022-08-21T11:17:43;27.90;66.00
70202;DHT22;57724;52.164;5.408;2022-08-21T11:20:33;28.40;51.40
70202;DHT22;57724;52.164;5.408;2022-08-21T11:23:07;28.30;53.10
70202;DHT22;57724;52.164;5.408;2022-08-21T11:25:41;29.30;55.40
70202;DHT22;57724;52.164;5.408;2022-08-21T11:28:17;27.80;66.70
70202;DHT22;57724;52.164;5.408;2022-08-21T11:34:04;27.90;56.80
70202;DHT22;57724;52.164;5.408;2022-08-21T11:36:44;27.00;66.50
70202;DHT22;57724;52.164;5.408;2022-08-21T11:39:25;28.00;67.70
70202;DHT22;57724;52.164;5.408;2022-08-21T11:42:26;28.60;68.90
70202;DHT22;57724;52.164;5.408;2022-08-21T11:45:27;27.50;52.70
70202;DHT22;57724;52.164;5.408;2022-08-21T11:48:23;27.40;53.00
70202;DHT22;57724;52.164;5.408;2022-08-21T11:50:54;26.50;67.60
70202;DHT22;57724;52.164;5.408;2022-08-21T11:56:00;27.80;53.20
70202;DHT22;57724;52.164;5.408;2022-08-21T11:58:49;28.00;69.10
70202;DHT22;57724;52.164;5.408;2022-08-21T12:01:23;26.40;64.00
70202;DHT22;57724;52.164;5.408;2022-08-21T12:04:00;27.40;53.40
70202;DHT22;57724;52.164;5.408;2022-08-21T12:06:34;26.60;63.20
70202;DHT22;57724;52.164;5.408;2022-08-21T12:09:29;26.50;67.00
70202;DHT22;57724;52.164;5.408;2022-08-21T12:12:36;27.60;53.30
70202;DHT22;57724;52.164;5.408;2022-08-21T12:25:59;28.80;67.70
70202;DHT22;57724;52.164;5.408;2022-08-21T12:28:27;28.70;66.50
70202;DHT22;57724;52.164;5.408;2022-08-21T12:30:54;30.00;66.30
70202;DHT22;57724;52.164;5.408;2022-08-21T12:33:31;29.40;65.00
70202;DHT22;57724;52.164;5.408;2022-08-21T12:36:10;30.10;48.10
70202;DHT22;57724;52.164;5.408;2022-08-21T12:38:51;29.10;62.20
70202;DHT22;57724;52.164;5.408;2022-08-21T12:41:27;29.20;61.60
70202;DHT22;57724;52.164;5.408;2022-08-21T12:44:04;30.40;62.50
70202;DHT22;57724;52.164;5.408;2022-08-21T12:46:40;31.10;62.90
70202;DHT22;57724;52.164;5.408;2022-08-21T12:49:19;29.30;62.10
70202;DHT22;57724;52.164;5.408;2022-08-21T12:52:02;30.30;46.90
70202;DHT22;57724;52.164;5.408;2022-08-21T12:54:37;28.50;61.80
70202;DHT22;57724;52.164;5.408;2022-08-21T12:57:06;29.50;62.30
70202;DHT22;57724;52.164;5.408;2022-08-21T12:59:39;30.70;62.90
70202;DHT22;57724;52.164;5.408;2022-08-21T13:02:16;29.70;48.40
70202;DHT22;57724;52.164;5.408;2022-08-21T13:04:45;31.30;63.30
70202;DHT22;57724;52.164;5.408;2022-08-21T13:07:16;31.40;62.80
70202;DHT22;57724;52.164;5.408;2022-08-21T13:09:52;29.40;61.40
70202;DHT22;57724;52.164;5.408;2022-08-21T13:12:21;29.20;61.50
70202;DHT22;57724;52.164;5.408;2022-08-21T13:14:56;30.80;62.90
70202;DHT22;57724;52.164;5.408;2022-08-21T13:17:24;29.30;61.70
70202;DHT22;57724;52.164;5.408;2022-08-21T13:19:57;29.70;62.30
70202;DHT22;57724;52.164;5.408;2022-08-21T13:22:25;29.60;48.60
70202;DHT22;57724;52.164;5.408;2022-08-21T13:25:02;29.80;48.20
70202;DHT22;57724;52.164;5.408;2022-08-21T13:32:35;30.00;61.90
70202;DHT22;57724;52.164;5.408;2022-08-21T13:35:13;29.80;46.40
70202;DHT22;57724;52.164;5.408;2022-08-21T13:37:43;28.60;60.80
70202;DHT22;57724;52.164;5.408;2022-08-21T13:40:16;30.50;62.40
70202;DHT22;57724;52.164;5.408;2022-08-21T13:42:45;30.90;62.80
70202;DHT22;57724;52.164;5.408;2022-08-21T13:45:24;29.30;61.70
70202;DHT22;57724;52.164;5.408;2022-08-21T13:47:52;29.70;61.30
70202;DHT22;57724;52.164;5.408;2022-08-21T13:50:22;29.40;61.90
70202;DHT22;57724;52.164;5.408;2022-08-21T13:53:02;28.90;62.00
70202;DHT22;57724;52.164;5.408;2022-08-21T13:55:39;29.20;47.70
70202;DHT22;57724;52.164;5.408;2022-08-21T13:58:08;28.90;62.90
70202;DHT22;57724;52.164;5.408;2022-08-21T14:00:45;29.00;62.60
70202;DHT22;57724;52.164;5.408;2022-08-21T14:03:31;28.30;62.00
70202;DHT22;57724;52.164;5.408;2022-08-21T14:10:59;28.10;62.20
70202;DHT22;57724;52.164;5.408;2022-08-21T14:13:40;29.20;48.00
70202;DHT22;57724;52.164;5.408;2022-08-21T14:16:14;29.30;63.50
70202;DHT22;57724;52.164;5.408;2022-08-21T14:21:24;28.50;63.90
70202;DHT22;57724;52.164;5.408;2022-08-21T14:24:10;29.30;53.20
70202;DHT22;57724;52.164;5.408;2022-08-21T14:26:58;27.90;64.30
70202;DHT22;57724;52.164;5.408;2022-08-21T14:29:31;28.30;61.70
70202;DHT22;57724;52.164;5.408;2022-08-21T14:32:14;29.00;61.60
70202;DHT22;57724;52.164;5.408;2022-08-21T14:34:52;26.90;64.80
70202;DHT22;57724;52.164;5.408;2022-08-21T14:37:21;26.70;65.20
70202;DHT22;57724;52.164;5.408;2022-08-21T14:39:48;26.60;61.10
70202;DHT22;57724;52.164;5.408;2022-08-21T14:42:15;28.50;66.90
70202;DHT22;57724;52.164;5.408;2022-08-21T14:44:42;28.20;67.00
70202;DHT22;57724;52.164;5.408;2022-08-21T14:49:36;26.60;57.40
70202;DHT22;57724;52.164;5.408;2022-08-21T14:52:03;26.20;66.20
70202;DHT22;57724;52.164;5.408;2022-08-21T14:54:31;26.20;66.50
70202;DHT22;57724;52.164;5.408;2022-08-21T14:57:02;27.60;67.40
70202;DHT22;57724;52.164;5.408;2022-08-21T14:59:31;28.50;68.20
70202;DHT22;57724;52.164;5.408;2022-08-21T15:01:59;28.50;68.20
70202;DHT22;57724;52.164;5.408;2022-08-21T15:04:27;27.10;67.20
70202;DHT22;57724;52.164;5.408;2022-08-21T15:06:53;26.40;66.90
70202;DHT22;57724;52.164;5.408;2022-08-21T15:11:47;26.40;67.00
70202;DHT22;57724;52.164;5.408;2022-08-21T15:14:28;28.00;68.10
70202;DHT22;57724;52.164;5.408;2022-08-21T15:16:56;26.30;64.60
70202;DHT22;57724;52.164;5.408;2022-08-21T15:19:24;26.80;68.00
70202;DHT22;57724;52.164;5.408;2022-08-21T15:26:45;28.10;59.50
70202;DHT22;57724;52.164;5.408;2022-08-21T15:29:13;26.50;67.70
70202;DHT22;57724;52.164;5.408;2022-08-21T15:31:57;26.90;52.80
70202;DHT22;57724;52.164;5.408;2022-08-21T15:34:26;25.90;58.70
70202;DHT22;57724;52.164;5.408;2022-08-21T15:36:57;25.80;67.20
70202;DHT22;57724;52.164;5.408;2022-08-21T15:39:25;26.00;67.00
70202;DHT22;57724;52.164;5.408;2022-08-21T15:44:25;25.70;67.40
70202;DHT22;57724;52.164;5.408;2022-08-21T15:46:54;26.70;54.50
70202;DHT22;57724;52.164;5.408;2022-08-21T15:49:22;25.80;67.90
70202;DHT22;57724;52.164;5.408;2022-08-21T15:51:49;25.90;67.80
70202;DHT22;57724;52.164;5.408;2022-08-21T15:54:16;25.70;67.30
70202;DHT22;57724;52.164;5.408;2022-08-21T15:56:45;25.90;68.00
70202;DHT22;57724;52.164;5.408;2022-08-21T15:59:20;26.50;54.70
70202;DHT22;57724;52.164;5.408;2022-08-21T16:01:49;26.60;66.30
70202;DHT22;57724;52.164;5.408;2022-08-21T16:04:35;27.90;70.00
70202;DHT22;57724;52.164;5.408;2022-08-21T16:09:35;25.30;68.20
70202;DHT22;57724;52.164;5.408;2022-08-21T16:12:03;26.60;55.50
70202;DHT22;57724;52.164;5.408;2022-08-21T16:14:31;26.50;56.60
70202;DHT22;57724;52.164;5.408;2022-08-21T16:16:58;27.60;69.90
70202;DHT22;57724;52.164;5.408;2022-08-21T16:19:27;25.70;65.40
70202;DHT22;57724;52.164;5.408;2022-08-21T16:24:22;25.80;68.90
70202;DHT22;57724;52.164;5.408;2022-08-21T16:26:49;25.40;68.80
70202;DHT22;57724;52.164;5.408;2022-08-21T16:29:26;27.40;57.20
70202;DHT22;57724;52.164;5.408;2022-08-21T16:31:55;26.20;70.20
70202;DHT22;57724;52.164;5.408;2022-08-21T16:34:21;25.40;69.70
70202;DHT22;57724;52.164;5.408;2022-08-21T16:36:48;25.40;69.60
70202;DHT22;57724;52.164;5.408;2022-08-21T16:39:15;25.40;70.00
70202;DHT22;57724;52.164;5.408;2022-08-21T16:44:09;25.90;70.90
70202;DHT22;57724;52.164;5.408;2022-08-21T16:46:39;26.50;71.40
70202;DHT22;57724;52.164;5.408;2022-08-21T16:49:07;25.50;65.20
70202;DHT22;57724;52.164;5.408;2022-08-21T16:51:36;26.00;57.60
70202;DHT22;57724;52.164;5.408;2022-08-21T16:54:03;26.90;71.80
70202;DHT22;57724;52.164;5.408;2022-08-21T16:56:32;26.70;71.80
70202;DHT22;57724;52.164;5.408;2022-08-21T16:59:03;25.90;57.40
70202;DHT22;57724;52.164;5.408;2022-08-21T17:01:32;26.40;61.70
70202;DHT22;57724;52.164;5.408;2022-08-21T17:04:00;26.90;71.90
70202;DHT22;57724;52.164;5.408;2022-08-21T17:08:56;25.50;56.80
70202;DHT22;57724;52.164;5.408;2022-08-21T17:14:15;25.50;56.20
70202;DHT22;57724;52.164;5.408;2022-08-21T17:16:45;26.00;72.20
70202;DHT22;57724;52.164;5.408;2022-08-21T17:19:13;24.90;60.60
70202;DHT22;57724;52.164;5.408;2022-08-21T17:21:40;24.60;71.40
70202;DHT22;57724;52.164;5.408;2022-08-21T17:26:35;25.40;72.50
70202;DHT22;57724;52.164;5.408;2022-08-21T17:29:04;25.90;73.50
70202;DHT22;57724;52.164;5.408;2022-08-21T17:31:36;25.60;73.50
70202;DHT22;57724;52.164;5.408;2022-08-21T17:34:05;23.80;72.40
70202;DHT22;57724;52.164;5.408;2022-08-21T17:36:31;24.00;72.50
70202;DHT22;57724;52.164;5.408;2022-08-21T17:43:53;25.00;65.20
70202;DHT22;57724;52.164;5.408;2022-08-21T17:46:27;24.70;58.40
70202;DHT22;57724;52.164;5.408;2022-08-21T17:48:55;24.70;60.00
70202;DHT22;57724;52.164;5.408;2022-08-21T17:51:25;25.90;74.10
70202;DHT22;57724;52.164;5.408;2022-08-21T17:53:52;23.50;72.70
70202;DHT22;57724;52.164;5.408;2022-08-21T17:58:48;23.90;73.40
70202;DHT22;57724;52.164;5.408;2022-08-21T18:01:16;23.80;73.70
70202;DHT22;57724;52.164;5.408;2022-08-21T18:03:44;23.40;68.20
70202;DHT22;57724;52.164;5.408;2022-08-21T18:06:12;24.40;62.30
70202;DHT22;57724;52.164;5.408;2022-08-21T18:13:49;24.60;76.00
70202;DHT22;57724;52.164;5.408;2022-08-21T18:16:17;24.10;61.90
70202;DHT22;57724;52.164;5.408;2022-08-21T18:18:46;25.40;76.70
70202;DHT22;57724;52.164;5.408;2022-08-21T18:21:14;25.30;65.40
70202;DHT22;57724;52.164;5.408;2022-08-21T18:23:41;25.30;77.00
70202;DHT22;57724;52.164;5.408;2022-08-21T18:26:13;24.00;62.70
70202;DHT22;57724;52.164;5.408;2022-08-21T18:28:40;24.00;62.20
70202;DHT22;57724;52.164;5.408;2022-08-21T18:31:10;24.40;75.20
70202;DHT22;57724;52.164;5.408;2022-08-21T18:33:38;22.90;76.40
70202;DHT22;57724;52.164;5.408;2022-08-21T18:36:25;22.70;76.50
70202;DHT22;57724;52.164;5.408;2022-08-21T18:41:21;22.70;76.60
70202;DHT22;57724;52.164;5.408;2022-08-21T18:48:42;24.00;78.50
70202;DHT22;57724;52.164;5.408;2022-08-21T18:56:05;23.50;78.90
70202;DHT22;57724;52.164;5.408;2022-08-21T18:58:42;22.20;78.50
70202;DHT22;57724;52.164;5.408;2022-08-21T19:01:10;23.10;79.00
70202;DHT22;57724;52.164;5.408;2022-08-21T19:06:04;22.00;79.00
70202;DHT22;57724;52.164;5.408;2022-08-21T19:08:35;22.50;79.40
70202;DHT22;57724;52.164;5.408;2022-08-21T19:11:03;22.20;79.50
70202;DHT22;57724;52.164;5.408;2022-08-21T19:13:32;22.70;79.80
70202;DHT22;57724;52.164;5.408;2022-08-21T19:15:59;22.00;79.90
70202;DHT22;57724;52.164;5.408;2022-08-21T19:18:31;22.10;75.30
70202;DHT22;57724;52.164;5.408;2022-08-21T19:25:56;23.60;76.00
70202;DHT22;57724;52.164;5.408;2022-08-21T19:28:38;24.00;82.00
70202;DHT22;57724;52.164;5.408;2022-08-21T19:31:16;25.30;71.00
70202;DHT22;57724;52.164;5.408;2022-08-21T19:33:52;23.30;81.90
70202;DHT22;57724;52.164;5.408;2022-08-21T19:38:54;22.30;81.20
70202;DHT22;57724;52.164;5.408;2022-08-21T19:41:26;21.90;80.90
70202;DHT22;57724;52.164;5.408;2022-08-21T19:43:57;21.80;80.60
70202;DHT22;57724;52.164;5.408;2022-08-21T19:46:32;23.50;66.50
70202;DHT22;57724;52.164;5.408;2022-08-21T19:49:02;22.70;67.70
70202;DHT22;57724;52.164;5.408;2022-08-21T19:51:32;22.60;81.30
70202;DHT22;57724;52.164;5.408;2022-08-21T19:54:00;22.00;69.20
70202;DHT22;57724;52.164;5.408;2022-08-21T19:56:29;24.00;79.70
70202;DHT22;57724;52.164;5.408;2022-08-21T19:58:57;21.50;81.00
70202;DHT22;57724;52.164;5.408;2022-08-21T20:01:25;22.50;68.60
70202;DHT22;57724;52.164;5.408;2022-08-21T20:03:53;22.50;68.70
70202;DHT22;57724;52.164;5.408;2022-08-21T20:06:24;22.40;69.30
70202;DHT22;57724;52.164;5.408;2022-08-21T20:08:52;22.50;69.20
70202;DHT22;57724;52.164;5.408;2022-08-21T20:11:28;21.40;82.10
70202;DHT22;57724;52.164;5.408;2022-08-21T20:13:58;23.80;83.60
70202;DHT22;57724;52.164;5.408;2022-08-21T20:16:27;22.30;69.70
70202;DHT22;57724;52.164;5.408;2022-08-21T20:18:54;23.60;84.00
70202;DHT22;57724;52.164;5.408;2022-08-21T20:23:51;23.60;84.50
70202;DHT22;57724;52.164;5.408;2022-08-21T20:28:45;21.70;84.20
